Time;durP1;ratioP1;P1;durP2;ratioP2;P2;SDS_P1;SDS_P2;PMS_P1;PMS_P2;Temp;Humidity;BMP_temperature;BMP_pressure;BME280_temperature;BME280_humidity;BME280_pressure;Samples;Min_cycle;Max_cycle;Signal;HPM_P1;HPM_P2
2022/10/25 00:02:24;;;;;;;4.93;1.10;;;;;;;;;;4984675;28;20178;-89
2022/10/25 00:05:28;;;;;;;4.00;1.00;;;;;;;;;;4995327;28;20222;-88
2022/10/25 00:08:33;;;;;;;2.40;1.13;;;;;;;;;;4984851;28;20197;-88
2022/10/25 00:11:37;;;;;;;4.23;0.90;;;;;;;;;;4972546;28;20221;-88
2022/10/25 00:14:41;;;;;;;3.13;0.80;;;;;;;;;;4983715;28;20217;-88
2022/10/25 00:17:45;;;;;;;2.30;0.97;;;;;;;;;;4983591;28;20186;-88
2022/10/25 00:20:49;;;;;;;6.30;1.20;;;;;;;;;;4984125;28;20178;-88
2022/10/25 00:23:53;;;;;;;1.77;1.00;;;;;;;;;;4994869;28;20221;-88
2022/10/25 00:26:57;;;;;;;4.90;1.30;;;;;;;;;;4983552;28;20633;-88
2022/10/25 00:30:03;;;;;;;2.00;1.07;;;;;;;;;;4995004;28;20209;-88
2022/10/25 00:33:02;;;;;;;5.13;1.20;;;;;;;;;;5035307;28;20207;-81
2022/10/25 00:36:12;;;;;;;1.67;1.20;;;;;;;;;;5050908;28;20172;-80
2022/10/25 00:39:16;;;;;;;3.43;1.07;;;;;;;;;;5038812;28;20181;-80
2022/10/25 00:42:24;;;;;;;1.67;1.00;;;;;;;;;;5025167;28;20212;-81
2022/10/25 00:45:28;;;;;;;3.47;1.20;;;;;;;;;;5063013;28;20200;-81
2022/10/25 00:48:33;;;;;;;2.03;1.30;;;;;;;;;;5039082;28;20184;-79
2022/10/25 00:51:42;;;;;;;2.03;1.07;;;;;;;;;;5050402;28;20710;-81
2022/10/25 00:54:50;;;;;;;4.53;1.27;;;;;;;;;;5039322;28;20180;-81
2022/10/25 00:58:00;;;;;;;2.10;1.17;;;;;;;;;;5027972;28;20184;-79
2022/10/25 01:01:06;;;;;;;4.03;1.70;;;;;;;;;;5038382;28;20211;-80
2022/10/25 01:04:15;;;;;;;2.07;1.57;;;;;;;;;;5049933;28;20180;-81
2022/10/25 01:07:20;;;;;;;3.30;1.87;;;;;;;;;;5050270;28;20180;-81
2022/10/25 01:10:25;;;;;;;5.93;2.20;;;;;;;;;;5038137;28;20199;-80
2022/10/25 01:13:29;;;;;;;3.87;2.00;;;;;;;;;;5048654;28;20180;-80
2022/10/25 01:16:51;;;;;;;5.50;2.00;;;;;;;;;;5049704;28;20180;-79
2022/10/25 01:20:30;;;;;;;4.93;3.30;;;;;;;;;;5049421;28;20628;-80
2022/10/25 01:24:09;;;;;;;4.53;2.73;;;;;;;;;;5048951;28;20177;-81
2022/10/25 01:27:54;;;;;;;2.80;2.50;;;;;;;;;;5027152;28;20180;-80
2022/10/25 01:31:34;;;;;;;4.20;2.70;;;;;;;;;;5037721;28;20224;-80
2022/10/25 01:34:57;;;;;;;5.03;2.70;;;;;;;;;;5049267;28;20188;-79
2022/10/25 01:38:24;;;;;;;4.17;2.90;;;;;;;;;;5048891;28;20184;-80
2022/10/25 01:41:33;;;;;;;4.90;3.03;;;;;;;;;;5027380;28;20212;-79
2022/10/25 01:45:05;;;;;;;8.93;3.40;;;;;;;;;;5049433;28;20176;-80
2022/10/25 01:48:23;;;;;;;3.70;2.77;;;;;;;;;;5055673;28;20641;-79
2022/10/25 01:51:30;;;;;;;3.40;2.80;;;;;;;;;;5038260;28;20232;-79
2022/10/25 01:54:35;;;;;;;5.43;3.27;;;;;;;;;;5051511;28;20176;-83
2022/10/25 01:57:39;;;;;;;4.00;2.87;;;;;;;;;;5041907;28;20184;-81
2022/10/25 02:00:59;;;;;;;5.63;2.77;;;;;;;;;;5031735;28;20208;-81
2022/10/25 02:04:25;;;;;;;4.80;2.67;;;;;;;;;;5039481;28;20177;-81
2022/10/25 02:07:36;;;;;;;3.37;2.70;;;;;;;;;;5062039;28;20184;-79
2022/10/25 02:10:49;;;;;;;6.43;2.97;;;;;;;;;;5053855;28;20227;-80
2022/10/25 02:14:09;;;;;;;4.73;2.60;;;;;;;;;;5046319;28;20180;-82
2022/10/25 02:17:20;;;;;;;7.57;2.67;;;;;;;;;;5071172;28;20184;-81
2022/10/25 02:20:27;;;;;;;6.90;3.03;;;;;;;;;;5047125;28;20180;-82
2022/10/25 02:23:35;;;;;;;4.13;2.30;;;;;;;;;;5069924;28;20188;-81
2022/10/25 02:26:42;;;;;;;4.17;2.70;;;;;;;;;;5046547;28;20200;-82
2022/10/25 02:29:46;;;;;;;2.80;2.50;;;;;;;;;;5035236;28;20184;-82
2022/10/25 02:32:51;;;;;;;8.97;2.73;;;;;;;;;;5035729;28;20551;-82
2022/10/25 02:36:13;;;;;;;5.50;3.10;;;;;;;;;;5032796;28;20192;-81
2022/10/25 02:39:20;;;;;;;3.83;2.30;;;;;;;;;;5033013;28;20196;-82
2022/10/25 02:42:25;;;;;;;4.70;2.77;;;;;;;;;;5054878;28;20211;-81
2022/10/25 02:45:29;;;;;;;2.97;2.50;;;;;;;;;;5033326;28;20180;-82
2022/10/25 02:48:33;;;;;;;5.73;2.20;;;;;;;;;;5033514;28;20176;-81
2022/10/25 02:51:37;;;;;;;3.50;2.27;;;;;;;;;;5044027;28;20709;-81
2022/10/25 02:54:42;;;;;;;3.57;2.23;;;;;;;;;;5053839;28;20184;-82
2022/10/25 02:57:46;;;;;;;3.37;2.30;;;;;;;;;;5030479;28;20176;-81
2022/10/25 03:00:50;;;;;;;2.80;1.80;;;;;;;;;;5041474;28;20220;-81
2022/10/25 03:03:54;;;;;;;6.17;2.40;;;;;;;;;;5052894;28;20180;-81
2022/10/25 03:06:58;;;;;;;3.17;2.13;;;;;;;;;;5028585;28;20200;-81
2022/10/25 03:10:03;;;;;;;2.77;1.80;;;;;;;;;;5031673;28;20181;-82
2022/10/25 03:13:07;;;;;;;3.57;2.00;;;;;;;;;;5043557;28;20177;-81
2022/10/25 03:16:12;;;;;;;3.37;2.07;;;;;;;;;;5066293;28;20199;-79
2022/10/25 03:19:16;;;;;;;4.50;2.00;;;;;;;;;;5042279;28;20180;-80
2022/10/25 03:22:20;;;;;;;3.03;2.23;;;;;;;;;;5042252;28;20207;-81
2022/10/25 03:25:24;;;;;;;4.93;2.07;;;;;;;;;;5053701;28;20176;-81
2022/10/25 03:28:30;;;;;;;4.23;2.20;;;;;;;;;;5052868;28;20176;-81
2022/10/25 03:31:34;;;;;;;4.53;2.10;;;;;;;;;;5029015;28;20224;-81
2022/10/25 03:34:38;;;;;;;3.03;2.20;;;;;;;;;;5052164;28;20214;-79
2022/10/25 03:37:43;;;;;;;2.30;1.73;;;;;;;;;;5049643;28;20204;-80
2022/10/25 03:40:48;;;;;;;6.13;1.77;;;;;;;;;;5040611;28;20567;-81
2022/10/25 03:43:52;;;;;;;2.40;1.90;;;;;;;;;;5052618;28;20180;-79
2022/10/25 03:46:56;;;;;;;1.93;1.60;;;;;;;;;;5041116;28;20183;-79
2022/10/25 03:50:09;;;;;;;1.97;1.53;;;;;;;;;;5049989;28;20192;-82
2022/10/25 03:53:17;;;;;;;2.73;1.40;;;;;;;;;;5025411;28;20173;-82
2022/10/25 03:56:22;;;;;;;3.83;1.90;;;;;;;;;;5047139;28;20188;-82
2022/10/25 03:59:26;;;;;;;4.63;1.70;;;;;;;;;;5069166;22;20224;-76
2022/10/25 04:02:31;;;;;;;5.33;1.70;;;;;;;;;;5034258;28;20213;-76
2022/10/25 04:05:35;;;;;;;4.30;1.63;;;;;;;;;;5011291;28;20627;-76
2022/10/25 04:08:39;;;;;;;3.63;1.80;;;;;;;;;;5021500;28;20200;-76
2022/10/25 04:11:43;;;;;;;1.50;1.27;;;;;;;;;;4993217;28;20232;-77
2022/10/25 04:14:47;;;;;;;3.77;1.37;;;;;;;;;;5011917;28;20205;-76
2022/10/25 04:17:52;;;;;;;4.27;1.50;;;;;;;;;;5002376;28;20181;-76
2022/10/25 04:20:57;;;;;;;4.77;1.40;;;;;;;;;;5005399;28;20217;-77
2022/10/25 04:24:01;;;;;;;6.53;1.37;;;;;;;;;;5021994;28;20193;-76
2022/10/25 04:27:05;;;;;;;3.23;1.17;;;;;;;;;;5010766;28;20548;-77
2022/10/25 04:30:10;;;;;;;2.93;1.30;;;;;;;;;;5002126;28;20205;-77
2022/10/25 04:33:14;;;;;;;1.87;1.00;;;;;;;;;;4995553;28;20200;-77
2022/10/25 04:36:18;;;;;;;1.27;1.03;;;;;;;;;;5002155;28;20185;-77
2022/10/25 04:39:24;;;;;;;1.77;1.10;;;;;;;;;;5031169;28;20204;-77
2022/10/25 04:42:32;;;;;;;3.93;1.10;;;;;;;;;;5010280;28;20687;-77
2022/10/25 04:45:36;;;;;;;1.90;1.00;;;;;;;;;;5033526;28;20196;-77
2022/10/25 04:48:41;;;;;;;2.73;0.93;;;;;;;;;;5021346;28;20200;-77
2022/10/25 04:51:45;;;;;;;3.97;1.20;;;;;;;;;;5012631;28;20692;-77
2022/10/25 04:54:49;;;;;;;3.00;0.90;;;;;;;;;;5003022;28;20209;-77
2022/10/25 04:57:53;;;;;;;5.90;1.00;;;;;;;;;;5005268;28;20200;-77
2022/10/25 05:01:00;;;;;;;0.83;0.80;;;;;;;;;;5009836;28;20224;-77
2022/10/25 05:04:04;;;;;;;1.53;0.90;;;;;;;;;;4999234;28;20185;-77
2022/10/25 05:07:08;;;;;;;6.73;1.40;;;;;;;;;;5021692;28;20524;-78
2022/10/25 05:10:12;;;;;;;1.70;1.03;;;;;;;;;;5010499;28;20201;-78
2022/10/25 05:13:17;;;;;;;4.23;1.27;;;;;;;;;;5008724;28;20185;-78
2022/10/25 05:16:23;;;;;;;4.60;1.13;;;;;;;;;;5010091;28;20177;-77
2022/10/25 05:19:27;;;;;;;3.27;1.27;;;;;;;;;;4998847;28;20201;-77
2022/10/25 05:22:32;;;;;;;2.57;1.10;;;;;;;;;;5009711;28;20209;-77
2022/10/25 05:25:35;;;;;;;2.93;0.97;;;;;;;;;;4998852;28;20184;-77
2022/10/25 05:28:41;;;;;;;2.20;1.00;;;;;;;;;;5010519;28;20627;-77
2022/10/25 05:31:45;;;;;;;3.97;1.03;;;;;;;;;;5025047;28;20564;-77
2022/10/25 05:34:49;;;;;;;3.93;1.10;;;;;;;;;;5025428;28;20184;-77
2022/10/25 05:37:53;;;;;;;3.47;1.10;;;;;;;;;;5025292;28;20528;-77
2022/10/25 05:40:59;;;;;;;3.57;0.87;;;;;;;;;;5001821;28;20212;-77
2022/10/25 05:44:04;;;;;;;3.97;1.00;;;;;;;;;;5013672;28;20177;-77
2022/10/25 05:47:08;;;;;;;3.00;1.90;;;;;;;;;;5013711;28;20185;-77
2022/10/25 05:50:12;;;;;;;6.17;1.30;;;;;;;;;;5023562;28;20196;-77
2022/10/25 05:53:16;;;;;;;4.30;1.60;;;;;;;;;;5024491;28;20220;-77
2022/10/25 05:56:22;;;;;;;3.30;1.20;;;;;;;;;;5002315;28;20185;-77
2022/10/25 05:59:26;;;;;;;1.17;1.07;;;;;;;;;;5013230;28;20200;-77
2022/10/25 06:02:31;;;;;;;4.83;1.20;;;;;;;;;;5013076;28;20212;-77
2022/10/25 06:05:35;;;;;;;2.47;1.70;;;;;;;;;;5002158;28;20508;-77
2022/10/25 06:08:39;;;;;;;5.07;1.70;;;;;;;;;;5012953;28;20181;-77
2022/10/25 06:11:43;;;;;;;3.90;1.73;;;;;;;;;;5024458;28;20587;-77
2022/10/25 06:14:46;;;;;;;3.10;1.60;;;;;;;;;;5002999;28;20177;-77
2022/10/25 06:17:50;;;;;;;2.23;1.90;;;;;;;;;;5013564;28;20172;-77
2022/10/25 06:20:55;;;;;;;2.50;2.13;;;;;;;;;;5013386;28;20216;-77
2022/10/25 06:23:59;;;;;;;3.30;2.10;;;;;;;;;;5036660;28;20185;-77
2022/10/25 06:27:03;;;;;;;2.90;1.73;;;;;;;;;;5036209;28;20181;-77
2022/10/25 06:30:08;;;;;;;6.23;2.00;;;;;;;;;;5012836;28;20177;-77
2022/10/25 06:33:11;;;;;;;2.73;1.93;;;;;;;;;;5012690;28;20209;-77
2022/10/25 06:36:21;;;;;;;4.70;1.93;;;;;;;;;;5024192;28;20185;-77
2022/10/25 06:39:25;;;;;;;3.20;1.77;;;;;;;;;;5024187;28;20177;-77
2022/10/25 06:42:30;;;;;;;3.93;1.67;;;;;;;;;;5012657;28;20217;-77
2022/10/25 06:45:34;;;;;;;2.17;1.47;;;;;;;;;;5023974;28;20508;-77
2022/10/25 06:48:38;;;;;;;3.57;1.40;;;;;;;;;;5012403;28;20185;-77
2022/10/25 06:51:42;;;;;;;4.73;1.63;;;;;;;;;;5012369;28;20224;-77
2022/10/25 06:54:46;;;;;;;2.47;1.90;;;;;;;;;;5012406;28;20201;-77
2022/10/25 06:57:55;;;;;;;3.50;2.23;;;;;;;;;;5023703;28;20196;-77
2022/10/25 07:01:04;;;;;;;5.37;2.10;;;;;;;;;;5024424;28;20703;-77
2022/10/25 07:04:09;;;;;;;8.20;1.97;;;;;;;;;;5023370;28;20539;-77
2022/10/25 07:07:13;;;;;;;3.57;1.80;;;;;;;;;;5035429;28;20196;-77
2022/10/25 07:10:18;;;;;;;6.80;5.10;;;;;;;;;;5023353;28;20516;-77
2022/10/25 07:13:22;;;;;;;2.40;1.57;;;;;;;;;;5023200;28;20209;-77
2022/10/25 07:16:27;;;;;;;1.33;1.23;;;;;;;;;;5012140;28;20185;-77
2022/10/25 07:19:31;;;;;;;3.30;2.00;;;;;;;;;;5011992;28;20177;-77
2022/10/25 07:22:36;;;;;;;2.30;1.43;;;;;;;;;;5000606;28;20216;-77
2022/10/25 07:25:40;;;;;;;26.27;23.67;;;;;;;;;;5023668;28;20184;-77
2022/10/25 07:28:46;;;;;;;7.43;3.73;;;;;;;;;;5011874;28;20188;-77
2022/10/25 07:31:51;;;;;;;8.43;5.87;;;;;;;;;;5022754;28;20228;-77
2022/10/25 07:34:55;;;;;;;8.53;6.47;;;;;;;;;;5022906;28;20201;-77
2022/10/25 07:37:59;;;;;;;3.53;2.47;;;;;;;;;;5022950;28;20200;-77
2022/10/25 07:41:03;;;;;;;1.97;1.33;;;;;;;;;;5012035;28;20564;-77
2022/10/25 07:44:08;;;;;;;2.40;2.10;;;;;;;;;;5012082;28;20619;-77
2022/10/25 07:47:11;;;;;;;2.37;1.70;;;;;;;;;;5011324;28;20200;-77
2022/10/25 07:50:16;;;;;;;2.73;1.60;;;;;;;;;;5022764;28;20181;-77
2022/10/25 07:53:20;;;;;;;3.43;1.60;;;;;;;;;;4999948;28;20213;-77
2022/10/25 07:56:24;;;;;;;2.50;1.50;;;;;;;;;;5011312;28;20516;-77
2022/10/25 07:59:28;;;;;;;3.10;1.40;;;;;;;;;;5022509;28;20196;-77
2022/10/25 08:02:32;;;;;;;1.70;1.40;;;;;;;;;;5022230;28;20209;-77
2022/10/25 08:05:37;;;;;;;3.00;1.30;;;;;;;;;;5034620;28;20176;-77
2022/10/25 08:08:41;;;;;;;6.40;1.67;;;;;;;;;;5011434;28;20620;-77
2022/10/25 08:11:45;;;;;;;1.93;1.20;;;;;;;;;;5011333;28;20221;-77
2022/10/25 08:14:49;;;;;;;1.47;1.10;;;;;;;;;;5022342;28;20177;-77
2022/10/25 08:18:00;;;;;;;2.53;1.17;;;;;;;;;;5022006;28;20623;-77
2022/10/25 08:21:04;;;;;;;5.03;1.10;;;;;;;;;;5010718;28;20217;-77
2022/10/25 08:24:08;;;;;;;4.00;1.50;;;;;;;;;;5034279;28;20177;-77
2022/10/25 08:27:12;;;;;;;3.83;1.30;;;;;;;;;;5010564;28;20181;-77
2022/10/25 08:30:16;;;;;;;8.57;2.90;;;;;;;;;;5010679;28;20195;-77
2022/10/25 08:33:20;;;;;;;22.63;19.07;;;;;;;;;;5021918;28;20208;-77
2022/10/25 08:36:25;;;;;;;3.93;2.97;;;;;;;;;;5010679;28;20184;-77
2022/10/25 08:39:29;;;;;;;2.53;1.60;;;;;;;;;;5010366;28;20200;-77
2022/10/25 08:42:45;;;;;;;4.83;1.30;;;;;;;;;;5010208;28;20552;-77
2022/10/25 08:45:57;;;;;;;2.67;1.30;;;;;;;;;;5022327;28;20616;-77
2022/10/25 08:49:46;;;;;;;3.07;1.10;;;;;;;;;;5034249;28;20181;-77
2022/10/25 08:52:59;;;;;;;3.97;1.00;;;;;;;;;;4973478;28;20207;-77
2022/10/25 08:56:05;;;;;;;11.40;10.10;;;;;;;;;;4964444;28;20191;-77
2022/10/25 08:59:16;;;;;;;4.47;2.30;;;;;;;;;;5021621;28;20188;-78
2022/10/25 09:02:36;;;;;;;1.70;1.13;;;;;;;;;;5021382;28;20679;-78
2022/10/25 09:05:46;;;;;;;3.80;2.70;;;;;;;;;;5021775;28;20181;-78
2022/10/25 09:09:15;;;;;;;4.23;2.60;;;;;;;;;;5033720;28;20173;-77
2022/10/25 09:12:34;;;;;;;4.07;2.20;;;;;;;;;;5010365;28;20232;-78
2022/10/25 09:15:53;;;;;;;4.37;2.80;;;;;;;;;;4998927;28;20533;-77
2022/10/25 09:18:57;;;;;;;3.83;1.47;;;;;;;;;;5021572;28;20196;-78
2022/10/25 09:22:07;;;;;;;4.73;1.67;;;;;;;;;;5021433;28;20216;-77
2022/10/25 09:25:39;;;;;;;1.33;0.70;;;;;;;;;;5010772;28;20184;-78
2022/10/25 09:29:07;;;;;;;2.13;0.90;;;;;;;;;;5021533;28;20177;-78
2022/10/25 09:32:22;;;;;;;3.47;0.80;;;;;;;;;;5021822;28;20687;-78
2022/10/25 09:35:31;;;;;;;3.63;1.20;;;;;;;;;;5010881;28;20177;-78
2022/10/25 09:39:08;;;;;;;3.00;1.00;;;;;;;;;;5011571;28;20193;-78
2022/10/25 09:42:18;;;;;;;2.30;0.80;;;;;;;;;;4995529;28;20224;-78
2022/10/25 09:45:30;;;;;;;1.70;0.70;;;;;;;;;;5035805;28;20177;-78
2022/10/25 09:48:41;;;;;;;1.80;0.70;;;;;;;;;;5011965;28;20177;-78
2022/10/25 09:51:58;;;;;;;3.10;1.10;;;;;;;;;;5012082;28;20212;-78
2022/10/25 09:55:28;;;;;;;3.57;1.00;;;;;;;;;;5022784;28;20174;-78
2022/10/25 09:58:40;;;;;;;2.93;1.00;;;;;;;;;;5000578;28;20181;-78
2022/10/25 10:01:44;;;;;;;3.27;0.90;;;;;;;;;;5045146;23;20223;-80
2022/10/25 10:04:49;;;;;;;5.40;0.87;;;;;;;;;;5045252;28;20176;-78
2022/10/25 10:07:53;;;;;;;3.10;0.80;;;;;;;;;;5057397;28;20514;-78
2022/10/25 10:10:58;;;;;;;2.03;1.00;;;;;;;;;;5056005;28;20220;-79
2022/10/25 10:14:09;;;;;;;1.70;0.90;;;;;;;;;;5044618;28;20216;-79
2022/10/25 10:17:17;;;;;;;4.30;0.80;;;;;;;;;;5048186;28;20180;-79
2022/10/25 10:20:21;;;;;;;1.73;0.97;;;;;;;;;;5037459;28;20176;-79
2022/10/25 10:23:29;;;;;;;1.90;0.80;;;;;;;;;;5036976;28;20176;-79
2022/10/25 10:26:46;;;;;;;4.80;0.80;;;;;;;;;;5060481;28;20196;-79
2022/10/25 10:30:04;;;;;;;1.23;0.90;;;;;;;;;;5036698;28;20185;-78
2022/10/25 10:33:16;;;;;;;2.93;1.00;;;;;;;;;;5048429;28;20208;-78
2022/10/25 10:36:26;;;;;;;3.63;0.97;;;;;;;;;;5048415;28;20192;-79
2022/10/25 10:39:31;;;;;;;2.33;1.00;;;;;;;;;;5036407;28;20180;-79
2022/10/25 10:42:37;;;;;;;3.57;0.90;;;;;;;;;;5025057;28;20282;-80
2022/10/25 10:45:48;;;;;;;4.07;1.10;;;;;;;;;;5047454;28;20184;-78
2022/10/25 10:48:55;;;;;;;2.17;1.10;;;;;;;;;;5047314;28;20180;-78
2022/10/25 10:52:01;;;;;;;4.33;0.83;;;;;;;;;;5060229;28;20215;-78
2022/10/25 10:55:17;;;;;;;2.63;1.00;;;;;;;;;;5036193;28;20177;-80
2022/10/25 10:58:31;;;;;;;2.10;1.00;;;;;;;;;;5035913;28;20200;-79
2022/10/25 11:01:35;;;;;;;2.33;0.80;;;;;;;;;;5047608;28;20220;-80
2022/10/25 11:04:47;;;;;;;2.40;0.80;;;;;;;;;;5048045;28;20627;-79
2022/10/25 11:07:58;;;;;;;1.17;0.80;;;;;;;;;;5036314;28;20176;-79
2022/10/25 11:11:14;;;;;;;3.73;0.97;;;;;;;;;;5046839;28;20216;-79
2022/10/25 11:14:19;;;;;;;5.93;0.93;;;;;;;;;;5059708;28;20204;-78
2022/10/25 11:17:27;;;;;;;2.83;0.93;;;;;;;;;;5035813;28;20180;-79
2022/10/25 11:20:53;;;;;;;1.33;0.83;;;;;;;;;;5060130;28;20181;-79
2022/10/25 11:24:30;;;;;;;2.43;0.83;;;;;;;;;;5035791;28;20184;-79
2022/10/25 11:28:08;;;;;;;3.17;0.90;;;;;;;;;;5058441;28;20180;-79
2022/10/25 11:31:37;;;;;;;4.03;1.00;;;;;;;;;;5047096;28;20208;-80
2022/10/25 11:35:07;;;;;;;4.27;1.30;;;;;;;;;;5058564;28;20551;-79
2022/10/25 11:38:14;;;;;;;2.87;0.93;;;;;;;;;;5024009;28;20583;-80
2022/10/25 11:41:46;;;;;;;4.03;0.90;;;;;;;;;;5046774;28;20208;-78
2022/10/25 11:45:12;;;;;;;2.97;0.80;;;;;;;;;;5035775;28;20176;-78
2022/10/25 11:48:16;;;;;;;3.33;0.60;;;;;;;;;;5036171;28;20180;-79
2022/10/25 11:51:39;;;;;;;4.07;0.80;;;;;;;;;;5023901;28;20215;-80
2022/10/25 11:55:16;;;;;;;2.30;0.90;;;;;;;;;;5046686;28;20219;-80
2022/10/25 11:58:43;;;;;;;2.97;0.60;;;;;;;;;;5040436;28;20185;-80
2022/10/25 12:02:18;;;;;;;2.37;0.70;;;;;;;;;;5046334;28;20227;-80
2022/10/25 12:05:30;;;;;;;5.57;0.60;;;;;;;;;;5022703;28;20184;-79
2022/10/25 12:08:54;;;;;;;1.93;0.70;;;;;;;;;;5035163;28;20181;-78
2022/10/25 12:12:03;;;;;;;2.23;0.70;;;;;;;;;;5022780;28;20559;-79
2022/10/25 12:15:16;;;;;;;1.63;0.77;;;;;;;;;;5046434;28;20204;-79
2022/10/25 12:18:43;;;;;;;4.40;0.90;;;;;;;;;;5023420;28;20181;-79
2022/10/25 12:21:55;;;;;;;2.97;0.60;;;;;;;;;;5045288;28;20224;-79
2022/10/25 12:25:04;;;;;;;2.17;0.80;;;;;;;;;;5038057;28;20184;-78
2022/10/25 12:28:44;;;;;;;2.10;0.63;;;;;;;;;;5048745;28;20172;-79
2022/10/25 12:31:57;;;;;;;3.33;0.90;;;;;;;;;;5037349;28;20698;-79
2022/10/25 12:35:05;;;;;;;1.27;0.70;;;;;;;;;;5061411;28;20224;-79
2022/10/25 12:38:32;;;;;;;2.63;0.80;;;;;;;;;;5048555;28;20176;-78
2022/10/25 12:41:39;;;;;;;1.87;0.60;;;;;;;;;;5026588;28;20211;-79
2022/10/25 12:45:01;;;;;;;5.43;0.60;;;;;;;;;;5048766;28;20192;-79
2022/10/25 12:48:33;;;;;;;2.13;0.50;;;;;;;;;;5036387;28;20529;-80
2022/10/25 12:52:11;;;;;;;1.90;0.50;;;;;;;;;;5036142;28;20707;-80
2022/10/25 12:55:32;;;;;;;1.50;0.57;;;;;;;;;;5047710;28;20202;-80
2022/10/25 12:58:45;;;;;;;4.00;0.60;;;;;;;;;;5036386;28;20543;-80
2022/10/25 13:02:07;;;;;;;2.33;0.30;;;;;;;;;;5046534;28;20230;-80
2022/10/25 13:05:27;;;;;;;1.13;0.57;;;;;;;;;;5035552;28;20174;-80
2022/10/25 13:08:32;;;;;;;1.80;0.60;;;;;;;;;;5035266;28;20183;-81
2022/10/25 13:11:41;;;;;;;5.37;0.70;;;;;;;;;;5023951;28;20223;-81
2022/10/25 13:14:57;;;;;;;1.13;0.53;;;;;;;;;;5045487;28;20215;-79
2022/10/25 13:18:06;;;;;;;2.07;0.70;;;;;;;;;;5034196;28;20201;-80
2022/10/25 13:21:51;;;;;;;2.57;0.67;;;;;;;;;;5033799;28;20223;-80
2022/10/25 13:24:58;;;;;;;2.97;0.70;;;;;;;;;;5022635;28;20174;-80
2022/10/25 13:28:14;;;;;;;3.43;0.40;;;;;;;;;;5034717;28;20179;-80
2022/10/25 13:31:34;;;;;;;4.03;0.60;;;;;;;;;;5032934;28;20222;-79
2022/10/25 13:34:38;;;;;;;5.97;0.50;;;;;;;;;;5021287;28;20206;-78
2022/10/25 13:37:43;;;;;;;2.00;0.70;;;;;;;;;;5043856;28;20189;-79
2022/10/25 13:41:05;;;;;;;2.40;0.50;;;;;;;;;;5020589;28;20221;-79
2022/10/25 13:44:19;;;;;;;3.30;0.57;;;;;;;;;;5043462;28;20173;-78
2022/10/25 13:47:39;;;;;;;1.40;0.60;;;;;;;;;;5021075;28;20183;-79
2022/10/25 13:50:47;;;;;;;4.07;0.67;;;;;;;;;;5034528;28;20220;-79
2022/10/25 13:53:52;;;;;;;1.60;0.63;;;;;;;;;;5061843;28;20203;-78
2022/10/25 13:56:56;;;;;;;1.87;0.60;;;;;;;;;;5036880;28;20172;-78
2022/10/25 14:00:01;;;;;;;1.33;0.60;;;;;;;;;;5049108;28;20180;-81
2022/10/25 14:03:08;;;;;;;3.33;1.20;;;;;;;;;;5025956;28;20195;-78
2022/10/25 14:06:28;;;;;;;5.10;1.73;;;;;;;;;;5037510;28;20172;-79
2022/10/25 14:09:35;;;;;;;3.27;1.30;;;;;;;;;;5037205;28;20184;-79
2022/10/25 14:12:43;;;;;;;4.77;1.80;;;;;;;;;;5025421;28;20208;-80
2022/10/25 14:15:55;;;;;;;2.57;1.10;;;;;;;;;;5048707;28;20200;-80
2022/10/25 14:19:19;;;;;;;2.57;0.97;;;;;;;;;;5048941;28;20188;-80
2022/10/25 14:22:37;;;;;;;5.13;0.90;;;;;;;;;;5026184;28;20212;-80
2022/10/25 14:25:55;;;;;;;2.07;0.80;;;;;;;;;;5025674;28;20180;-80
2022/10/25 14:29:18;;;;;;;1.37;0.60;;;;;;;;;;5036329;28;20185;-81
2022/10/25 14:32:22;;;;;;;3.53;0.70;;;;;;;;;;5036394;28;20216;-80
2022/10/25 14:35:45;;;;;;;3.00;0.83;;;;;;;;;;5048199;28;20216;-80
2022/10/25 14:38:54;;;;;;;0.80;0.50;;;;;;;;;;5047715;28;20177;-80
2022/10/25 14:42:01;;;;;;;4.13;1.40;;;;;;;;;;5048255;28;20686;-79
2022/10/25 14:45:17;;;;;;;4.33;1.20;;;;;;;;;;5048335;28;20196;-80
2022/10/25 14:48:21;;;;;;;3.90;0.83;;;;;;;;;;5046953;28;20520;-80
2022/10/25 14:51:29;;;;;;;6.93;0.70;;;;;;;;;;5035662;28;20216;-82
2022/10/25 14:54:35;;;;;;;2.40;0.60;;;;;;;;;;5024723;28;20543;-79
2022/10/25 14:57:43;;;;;;;3.40;0.70;;;;;;;;;;5048254;28;20529;-79
2022/10/25 15:01:00;;;;;;;5.27;0.90;;;;;;;;;;5024372;28;20220;-79
2022/10/25 15:04:04;;;;;;;3.80;0.70;;;;;;;;;;5048030;28;20173;-80
2022/10/25 15:07:23;;;;;;;4.00;0.80;;;;;;;;;;5037081;28;20176;-79
2022/10/25 15:10:39;;;;;;;0.87;0.60;;;;;;;;;;5025288;28;20180;-79
2022/10/25 15:13:47;;;;;;;6.57;1.00;;;;;;;;;;5035517;28;20188;-80
2022/10/25 15:17:01;;;;;;;1.53;0.60;;;;;;;;;;5036128;28;20181;-80
2022/10/25 15:20:27;;;;;;;2.60;0.67;;;;;;;;;;5031154;28;20208;-80
2022/10/25 15:23:32;;;;;;;5.03;0.63;;;;;;;;;;5015936;28;20182;-79
2022/10/25 15:26:37;;;;;;;5.30;0.60;;;;;;;;;;5034347;28;20678;-79
2022/10/25 15:29:41;;;;;;;3.60;0.80;;;;;;;;;;5023768;28;20176;-79
2022/10/25 15:32:45;;;;;;;2.97;0.80;;;;;;;;;;5046550;28;20180;-80
2022/10/25 15:35:54;;;;;;;5.20;0.60;;;;;;;;;;5035518;28;20212;-79
2022/10/25 15:39:01;;;;;;;2.50;0.70;;;;;;;;;;5036057;28;20185;-80
2022/10/25 15:42:06;;;;;;;2.00;0.90;;;;;;;;;;5035200;28;20215;-78
2022/10/25 15:45:11;;;;;;;3.70;1.00;;;;;;;;;;5035183;28;20173;-79
2022/10/25 15:48:21;;;;;;;1.97;0.80;;;;;;;;;;5035010;28;20184;-80
2022/10/25 15:51:26;;;;;;;2.97;0.90;;;;;;;;;;5046225;28;20216;-79
2022/10/25 15:54:33;;;;;;;4.80;0.90;;;;;;;;;;5034310;28;20208;-79
2022/10/25 15:57:37;;;;;;;1.37;0.53;;;;;;;;;;5013990;28;20204;-79
2022/10/25 16:00:42;;;;;;;3.80;0.67;;;;;;;;;;5023165;28;20228;-81
2022/10/25 16:03:46;;;;;;;3.20;0.73;;;;;;;;;;5003787;28;20189;-79
2022/10/25 16:06:50;;;;;;;2.90;0.70;;;;;;;;;;5026018;28;20201;-79
2022/10/25 16:09:54;;;;;;;2.67;0.70;;;;;;;;;;5025590;28;20204;-79
2022/10/25 16:13:10;;;;;;;2.73;0.90;;;;;;;;;;5014010;28;20181;-79
2022/10/25 16:16:28;;;;;;;2.80;0.80;;;;;;;;;;5014314;28;20217;-79
2022/10/25 16:19:33;;;;;;;3.20;0.73;;;;;;;;;;5025867;28;20219;-78
2022/10/25 16:22:37;;;;;;;2.40;1.13;;;;;;;;;;5024729;28;20216;-78
2022/10/25 16:25:41;;;;;;;1.63;0.60;;;;;;;;;;5002427;28;20192;-79
2022/10/25 16:28:45;;;;;;;4.13;0.70;;;;;;;;;;5032723;28;20662;-79
2022/10/25 16:31:51;;;;;;;5.00;0.97;;;;;;;;;;5033117;28;20212;-80
2022/10/25 16:34:55;;;;;;;3.97;0.87;;;;;;;;;;5033564;28;20208;-80
2022/10/25 16:37:59;;;;;;;3.80;0.80;;;;;;;;;;5033849;28;20184;-80
2022/10/25 16:41:04;;;;;;;1.00;0.53;;;;;;;;;;5033394;28;20666;-78
2022/10/25 16:44:12;;;;;;;1.90;1.00;;;;;;;;;;5033628;28;20196;-80
2022/10/25 16:47:16;;;;;;;1.73;0.80;;;;;;;;;;5029413;28;20548;-77
2022/10/25 16:50:25;;;;;;;2.37;0.87;;;;;;;;;;5035836;28;20176;-78
2022/10/25 16:53:31;;;;;;;3.23;0.83;;;;;;;;;;5035970;28;20214;-79
2022/10/25 16:56:35;;;;;;;5.07;0.70;;;;;;;;;;5024761;28;20224;-78
2022/10/25 16:59:39;;;;;;;0.90;0.60;;;;;;;;;;5036346;28;20204;-80
2022/10/25 17:02:43;;;;;;;5.90;0.80;;;;;;;;;;5012940;28;20200;-78
2022/10/25 17:05:48;;;;;;;1.47;0.70;;;;;;;;;;5026367;28;20616;-77
2022/10/25 17:08:52;;;;;;;5.40;0.80;;;;;;;;;;5019565;28;20188;-80
2022/10/25 17:11:56;;;;;;;4.83;0.90;;;;;;;;;;5014513;28;20216;-79
2022/10/25 17:15:00;;;;;;;5.50;1.00;;;;;;;;;;5025200;28;20560;-78
2022/10/25 17:18:04;;;;;;;2.13;1.17;;;;;;;;;;5026078;28;20176;-78
2022/10/25 17:21:12;;;;;;;2.40;1.00;;;;;;;;;;5024194;28;20220;-80
2022/10/25 17:24:17;;;;;;;4.23;1.20;;;;;;;;;;5023367;28;20659;-81
2022/10/25 17:27:21;;;;;;;2.73;0.90;;;;;;;;;;5001720;28;20537;-80
2022/10/25 17:30:26;;;;;;;3.67;0.70;;;;;;;;;;5012658;28;20200;-80
2022/10/25 17:33:30;;;;;;;2.70;0.80;;;;;;;;;;5024168;28;20177;-81
2022/10/25 17:36:36;;;;;;;4.17;1.50;;;;;;;;;;5025360;28;20678;-80
2022/10/25 17:39:40;;;;;;;4.77;1.00;;;;;;;;;;5012499;28;20201;-80
2022/10/25 17:42:45;;;;;;;6.03;1.50;;;;;;;;;;5023891;28;20181;-80
2022/10/25 17:45:50;;;;;;;4.93;1.33;;;;;;;;;;5013207;28;20181;-80
2022/10/25 17:48:57;;;;;;;4.87;1.30;;;;;;;;;;5012137;28;20180;-80
2022/10/25 17:52:01;;;;;;;5.07;1.30;;;;;;;;;;5024003;28;20217;-80
2022/10/25 17:55:10;;;;;;;2.37;1.30;;;;;;;;;;5024171;28;20679;-77
2022/10/25 17:58:14;;;;;;;6.57;1.00;;;;;;;;;;5012800;28;20173;-78
2022/10/25 18:01:24;;;;;;;9.63;1.50;;;;;;;;;;5036526;28;20220;-79
2022/10/25 18:04:28;;;;;;;3.47;1.37;;;;;;;;;;5002452;28;20185;-79
2022/10/25 18:07:32;;;;;;;2.17;1.10;;;;;;;;;;5024601;28;20652;-78
2022/10/25 18:10:37;;;;;;;2.07;1.10;;;;;;;;;;5026461;28;20220;-81
2022/10/25 18:13:41;;;;;;;3.07;1.07;;;;;;;;;;5004915;28;20201;-81
2022/10/25 18:16:45;;;;;;;3.87;1.10;;;;;;;;;;5024274;28;20212;-81
2022/10/25 18:19:49;;;;;;;2.73;1.30;;;;;;;;;;5023883;28;20517;-80
2022/10/25 18:22:54;;;;;;;5.00;1.40;;;;;;;;;;5013456;28;20612;-81
2022/10/25 18:25:58;;;;;;;4.97;1.20;;;;;;;;;;5012782;28;20177;-79
2022/10/25 18:29:03;;;;;;;2.27;1.37;;;;;;;;;;5012920;28;20181;-81
2022/10/25 18:32:07;;;;;;;5.93;1.10;;;;;;;;;;5012688;28;20212;-80
2022/10/25 18:35:11;;;;;;;7.20;1.10;;;;;;;;;;5024706;28;20216;-79
2022/10/25 18:38:15;;;;;;;14.30;2.23;;;;;;;;;;5016379;28;20181;-80
2022/10/25 18:41:22;;;;;;;4.17;1.20;;;;;;;;;;5028171;28;20217;-79
2022/10/25 18:44:26;;;;;;;4.00;1.20;;;;;;;;;;5016625;28;20533;-80
2022/10/25 18:47:31;;;;;;;7.10;1.40;;;;;;;;;;5023583;28;20628;-82
2022/10/25 18:50:36;;;;;;;2.73;1.40;;;;;;;;;;5018173;28;20188;-83
2022/10/25 18:53:41;;;;;;;3.90;1.27;;;;;;;;;;5009704;28;20177;-82
2022/10/25 18:56:45;;;;;;;6.37;1.30;;;;;;;;;;5005246;28;20217;-82